Time;durP1;ratioP1;P1;durP2;ratioP2;P2;SDS_P1;SDS_P2;PMS_P1;PMS_P2;Temp;Humidity;BMP_temperature;BMP_pressure;BME280_temperature;BME280_humidity;BME280_pressure;Samples;Min_cycle;Max_cycle;Signal;HPM_P1;HPM_P2
2023/05/07 00:01:12;;;;;;;1.27;1.17;;;;;;;;;;5137674;27;20027;-88
2023/05/07 00:03:38;;;;;;;1.40;1.10;;;;;;;;;;5102044;27;20059;-90
2023/05/07 00:06:03;;;;;;;1.42;1.17;;;;;;;;;;5119268;27;20062;-90
2023/05/07 00:08:28;;;;;;;1.98;1.10;;;;;;;;;;5119408;27;20027;-86
2023/05/07 00:10:54;;;;;;;1.73;1.48;;;;;;;;;;5101838;27;20030;-89
2023/05/07 00:13:19;;;;;;;1.42;1.10;;;;;;;;;;5137436;27;20030;-84
2023/05/07 00:15:45;;;;;;;1.55;1.40;;;;;;;;;;5118654;27;20034;-90
2023/05/07 00:18:10;;;;;;;1.52;1.42;;;;;;;;;;5118740;27;20037;-88
2023/05/07 00:20:35;;;;;;;3.38;1.75;;;;;;;;;;5118716;27;20038;-88
2023/05/07 00:23:01;;;;;;;1.52;1.42;;;;;;;;;;5101540;27;20030;-85
2023/05/07 00:25:26;;;;;;;1.45;1.20;;;;;;;;;;5136906;27;20038;-85
2023/05/07 00:27:52;;;;;;;1.92;1.30;;;;;;;;;;5137149;27;20061;-84
2023/05/07 00:30:17;;;;;;;2.10;1.38;;;;;;;;;;5118605;27;20031;-85
2023/05/07 00:32:45;;;;;;;2.83;1.63;;;;;;;;;;5137067;27;20478;-85
2023/05/07 00:35:11;;;;;;;1.40;1.20;;;;;;;;;;5136154;27;20106;-84
2023/05/07 00:37:36;;;;;;;1.35;1.25;;;;;;;;;;5101284;27;20051;-84
2023/05/07 00:40:04;;;;;;;1.50;1.30;;;;;;;;;;5136638;27;20023;-85
2023/05/07 00:42:32;;;;;;;3.15;1.45;;;;;;;;;;5136943;27;20028;-86
2023/05/07 00:44:57;;;;;;;4.18;1.50;;;;;;;;;;5118103;27;20027;-86
2023/05/07 00:47:23;;;;;;;2.03;1.40;;;;;;;;;;5136950;27;20191;-86
2023/05/07 00:49:48;;;;;;;1.63;1.52;;;;;;;;;;5137084;27;20027;-86
2023/05/07 00:52:16;;;;;;;1.65;1.40;;;;;;;;;;5136861;27;20048;-86
2023/05/07 00:54:42;;;;;;;1.98;1.35;;;;;;;;;;5118301;27;20359;-87
2023/05/07 00:57:09;;;;;;;1.30;1.20;;;;;;;;;;5101230;27;20066;-87
2023/05/07 00:59:35;;;;;;;1.70;1.20;;;;;;;;;;5118237;27;20484;-87
2023/05/07 01:02:00;;;;;;;2.22;1.30;;;;;;;;;;5118191;27;20023;-87
2023/05/07 01:04:26;;;;;;;3.22;1.50;;;;;;;;;;5117711;27;20027;-87
2023/05/07 01:06:53;;;;;;;1.85;1.52;;;;;;;;;;5117705;27;20181;-87
2023/05/07 01:09:19;;;;;;;1.60;1.30;;;;;;;;;;5117728;27;20393;-88
2023/05/07 01:11:45;;;;;;;3.30;1.50;;;;;;;;;;5100854;27;20039;-87
2023/05/07 01:14:11;;;;;;;1.48;1.38;;;;;;;;;;5100671;27;20100;-87
2023/05/07 01:16:37;;;;;;;1.60;1.30;;;;;;;;;;5118172;27;20027;-88
2023/05/07 01:19:02;;;;;;;2.65;1.20;;;;;;;;;;5084007;27;20034;-88
2023/05/07 01:21:32;;;;;;;1.45;1.27;;;;;;;;;;5135812;27;20474;-89
2023/05/07 01:23:58;;;;;;;1.90;1.20;;;;;;;;;;5117527;27;20016;-89
2023/05/07 01:26:23;;;;;;;1.10;1.00;;;;;;;;;;5117493;27;20059;-87
2023/05/07 01:28:49;;;;;;;1.58;1.33;;;;;;;;;;5117330;27;20038;-87
2023/05/07 01:31:15;;;;;;;1.30;1.15;;;;;;;;;;5135834;27;20027;-87
2023/05/07 01:33:42;;;;;;;1.73;1.20;;;;;;;;;;5100088;27;20035;-87
2023/05/07 01:36:08;;;;;;;1.63;1.25;;;;;;;;;;5083407;27;20035;-87
2023/05/07 01:38:35;;;;;;;2.50;1.40;;;;;;;;;;5117094;27;20039;-85
2023/05/07 01:41:01;;;;;;;1.63;1.20;;;;;;;;;;5100038;27;20019;-85
2023/05/07 01:43:26;;;;;;;2.88;1.30;;;;;;;;;;5117004;27;20023;-85
2023/05/07 01:45:52;;;;;;;1.88;1.45;;;;;;;;;;5116437;28;20423;-85
2023/05/07 01:48:18;;;;;;;1.30;1.20;;;;;;;;;;5116801;27;20023;-86
2023/05/07 01:50:44;;;;;;;1.27;1.17;;;;;;;;;;5117009;27;20051;-86
2023/05/07 01:53:09;;;;;;;3.08;1.23;;;;;;;;;;5099880;27;20031;-86
2023/05/07 01:55:36;;;;;;;1.00;1.00;;;;;;;;;;5099764;27;20034;-86
2023/05/07 01:58:02;;;;;;;1.25;1.13;;;;;;;;;;5135105;27;20030;-85
2023/05/07 02:00:28;;;;;;;1.30;1.20;;;;;;;;;;5134987;27;20031;-84
2023/05/07 02:02:54;;;;;;;1.55;1.30;;;;;;;;;;5135250;27;20084;-85
2023/05/07 02:05:19;;;;;;;1.67;1.10;;;;;;;;;;5099211;27;20051;-84
2023/05/07 02:07:45;;;;;;;2.30;1.10;;;;;;;;;;5116565;27;20465;-87
2023/05/07 02:10:10;;;;;;;1.48;1.10;;;;;;;;;;5116810;27;20030;-87
2023/05/07 02:12:35;;;;;;;1.75;1.23;;;;;;;;;;5116500;27;20031;-87
2023/05/07 02:15:01;;;;;;;1.67;1.10;;;;;;;;;;5116361;27;20539;-87
2023/05/07 02:17:27;;;;;;;1.48;1.30;;;;;;;;;;5117025;27;20027;-87
2023/05/07 02:19:52;;;;;;;2.05;1.38;;;;;;;;;;5099889;27;20023;-87
2023/05/07 02:22:17;;;;;;;2.28;1.35;;;;;;;;;;5116318;27;20027;-87
2023/05/07 02:24:43;;;;;;;2.10;1.40;;;;;;;;;;5134702;27;20058;-87
2023/05/07 02:27:08;;;;;;;2.17;1.60;;;;;;;;;;5116294;27;20031;-87
2023/05/07 02:29:34;;;;;;;1.98;1.38;;;;;;;;;;5134703;27;20492;-88
2023/05/07 02:31:59;;;;;;;1.15;1.05;;;;;;;;;;5116195;27;20034;-88
2023/05/07 02:34:24;;;;;;;1.38;1.00;;;;;;;;;;5135297;27;20019;-88
2023/05/07 02:36:50;;;;;;;1.42;1.27;;;;;;;;;;5116965;27;20042;-88
2023/05/07 02:39:16;;;;;;;1.17;1.08;;;;;;;;;;5115974;27;20042;-89
2023/05/07 02:41:42;;;;;;;1.35;1.25;;;;;;;;;;5116069;27;20035;-89
2023/05/07 02:44:07;;;;;;;1.58;1.38;;;;;;;;;;5116552;28;20092;-88
2023/05/07 02:46:33;;;;;;;1.40;1.30;;;;;;;;;;5116130;28;20072;-89
2023/05/07 02:48:58;;;;;;;1.90;1.30;;;;;;;;;;5116854;28;20046;-89
2023/05/07 02:51:23;;;;;;;1.40;1.05;;;;;;;;;;5100910;27;20103;-89
2023/05/07 02:53:49;;;;;;;1.65;1.30;;;;;;;;;;5116362;28;20024;-88
2023/05/07 02:56:14;;;;;;;1.42;1.33;;;;;;;;;;5099059;28;20027;-89
2023/05/07 02:58:41;;;;;;;1.50;1.35;;;;;;;;;;5140034;27;20034;-87
2023/05/07 03:01:07;;;;;;;1.55;1.10;;;;;;;;;;5106156;27;20027;-87
2023/05/07 03:03:33;;;;;;;1.63;1.23;;;;;;;;;;5122722;27;20023;-87
2023/05/07 03:05:58;;;;;;;1.80;1.50;;;;;;;;;;5105498;27;20081;-87
2023/05/07 03:08:24;;;;;;;1.27;1.17;;;;;;;;;;5105547;27;20481;-87
2023/05/07 03:10:49;;;;;;;1.35;1.10;;;;;;;;;;5122737;27;20035;-88
2023/05/07 03:13:15;;;;;;;2.25;1.25;;;;;;;;;;5122716;27;20023;-87
2023/05/07 03:15:40;;;;;;;1.30;1.20;;;;;;;;;;5141413;27;20055;-87
2023/05/07 03:18:06;;;;;;;1.30;1.20;;;;;;;;;;5122955;27;20027;-88
2023/05/07 03:20:31;;;;;;;1.27;1.05;;;;;;;;;;5105724;27;20031;-87
2023/05/07 03:22:56;;;;;;;2.05;1.40;;;;;;;;;;5105457;27;20019;-87
2023/05/07 03:25:22;;;;;;;1.10;1.10;;;;;;;;;;5141103;27;20370;-87
2023/05/07 03:27:47;;;;;;;2.05;1.33;;;;;;;;;;5123116;27;20519;-87
2023/05/07 03:30:13;;;;;;;1.60;1.20;;;;;;;;;;5141357;27;20031;-87
2023/05/07 03:32:38;;;;;;;1.60;1.20;;;;;;;;;;5108349;27;20030;-87
2023/05/07 03:35:04;;;;;;;1.40;1.30;;;;;;;;;;5126985;27;20030;-86
2023/05/07 03:37:29;;;;;;;2.65;1.50;;;;;;;;;;5145292;27;20054;-87
2023/05/07 03:39:55;;;;;;;1.30;1.20;;;;;;;;;;5109582;27;20470;-89
2023/05/07 03:42:21;;;;;;;1.60;1.38;;;;;;;;;;5126207;27;20083;-88
2023/05/07 03:44:46;;;;;;;1.50;1.40;;;;;;;;;;5143265;27;20023;-88
2023/05/07 03:47:13;;;;;;;1.38;1.20;;;;;;;;;;5143822;27;20042;-87
2023/05/07 03:49:38;;;;;;;1.25;1.15;;;;;;;;;;5125448;27;20454;-87
2023/05/07 03:52:04;;;;;;;2.80;1.33;;;;;;;;;;5144027;27;20041;-87
2023/05/07 03:54:30;;;;;;;2.20;1.40;;;;;;;;;;5146178;27;20028;-87
2023/05/07 03:56:55;;;;;;;1.33;1.20;;;;;;;;;;5109000;27;20058;-87
2023/05/07 03:59:21;;;;;;;1.58;1.42;;;;;;;;;;5142506;27;20058;-87
2023/05/07 04:01:46;;;;;;;1.65;1.30;;;;;;;;;;5142563;27;20431;-87
2023/05/07 04:04:12;;;;;;;2.10;1.70;;;;;;;;;;5123255;27;20015;-87
2023/05/07 04:06:37;;;;;;;2.20;1.65;;;;;;;;;;5124487;27;20067;-87
2023/05/07 04:09:03;;;;;;;2.40;1.25;;;;;;;;;;5103785;27;20057;-88
2023/05/07 04:11:28;;;;;;;1.90;1.45;;;;;;;;;;5138304;27;20050;-87
2023/05/07 04:13:54;;;;;;;2.20;1.65;;;;;;;;;;5102157;27;20042;-88
2023/05/07 04:16:19;;;;;;;2.33;1.42;;;;;;;;;;5102663;27;20503;-87
2023/05/07 04:18:44;;;;;;;2.13;1.50;;;;;;;;;;5119428;27;20023;-85
2023/05/07 04:21:20;;;;;;;1.70;1.33;;;;;;;;;;5138027;27;20359;-86
2023/05/07 04:23:46;;;;;;;3.47;1.65;;;;;;;;;;5101730;27;20050;-88
2023/05/07 04:26:12;;;;;;;2.05;1.80;;;;;;;;;;5102063;27;20034;-87
2023/05/07 04:28:38;;;;;;;1.50;1.40;;;;;;;;;;5102103;27;20031;-88
2023/05/07 04:31:03;;;;;;;4.38;1.67;;;;;;;;;;5137463;27;20023;-88
2023/05/07 04:33:29;;;;;;;1.30;1.20;;;;;;;;;;5119741;27;20029;-87
2023/05/07 04:35:54;;;;;;;2.03;1.50;;;;;;;;;;5101901;27;20027;-87
2023/05/07 04:38:19;;;;;;;1.98;1.40;;;;;;;;;;5136940;27;20072;-88
2023/05/07 04:40:45;;;;;;;1.63;1.40;;;;;;;;;;5119009;27;20031;-88
2023/05/07 04:43:11;;;;;;;1.50;1.40;;;;;;;;;;5102170;27;20023;-89
2023/05/07 04:45:36;;;;;;;2.15;1.50;;;;;;;;;;5118585;27;20481;-89
2023/05/07 04:48:02;;;;;;;1.90;1.60;;;;;;;;;;5118989;27;20107;-89
2023/05/07 04:50:27;;;;;;;2.35;1.98;;;;;;;;;;5118361;27;20463;-89
2023/05/07 04:52:53;;;;;;;1.83;1.52;;;;;;;;;;5125544;27;20472;-89
2023/05/07 04:55:18;;;;;;;3.40;1.50;;;;;;;;;;5143931;27;20084;-90
2023/05/07 04:57:44;;;;;;;1.55;1.45;;;;;;;;;;5124632;27;20113;-89
2023/05/07 05:00:10;;;;;;;1.40;1.30;;;;;;;;;;5122758;27;20035;-87
2023/05/07 05:02:35;;;;;;;2.17;1.60;;;;;;;;;;5104367;27;20080;-87
2023/05/07 05:05:02;;;;;;;1.58;1.48;;;;;;;;;;5102152;27;20034;-87
2023/05/07 05:07:28;;;;;;;4.13;1.70;;;;;;;;;;5118865;27;20043;-87
2023/05/07 05:09:55;;;;;;;1.40;1.30;;;;;;;;;;5118211;27;20034;-87
2023/05/07 05:12:21;;;;;;;1.70;1.60;;;;;;;;;;5118777;27;20039;-86
2023/05/07 05:14:47;;;;;;;2.25;1.55;;;;;;;;;;5103733;27;20050;-87
2023/05/07 05:17:12;;;;;;;4.07;1.70;;;;;;;;;;5141463;27;20027;-87
2023/05/07 05:19:37;;;;;;;2.10;1.67;;;;;;;;;;5103566;27;20027;-88
2023/05/07 05:22:03;;;;;;;1.70;1.60;;;;;;;;;;5118203;27;20031;-86
2023/05/07 05:24:29;;;;;;;2.10;1.50;;;;;;;;;;5117785;27;20493;-86
2023/05/07 05:26:55;;;;;;;1.80;1.70;;;;;;;;;;5084884;27;20030;-86
2023/05/07 05:29:20;;;;;;;1.75;1.50;;;;;;;;;;5117934;27;20019;-85
2023/05/07 05:31:46;;;;;;;2.00;1.80;;;;;;;;;;5118148;27;20035;-86
2023/05/07 05:34:11;;;;;;;2.33;2.05;;;;;;;;;;5136102;27;20031;-85
2023/05/07 05:36:36;;;;;;;2.05;1.70;;;;;;;;;;5100387;27;20054;-85
2023/05/07 05:39:02;;;;;;;2.78;1.83;;;;;;;;;;5136222;27;20035;-85
2023/05/07 05:41:27;;;;;;;2.08;1.75;;;;;;;;;;5117282;27;20477;-86
2023/05/07 05:43:53;;;;;;;2.88;2.10;;;;;;;;;;5135881;27;20525;-85
2023/05/07 05:46:18;;;;;;;1.65;1.55;;;;;;;;;;5100316;27;20034;-85
2023/05/07 05:48:44;;;;;;;3.45;2.15;;;;;;;;;;5135635;27;20031;-87
2023/05/07 05:51:09;;;;;;;3.90;2.25;;;;;;;;;;5117636;27;20023;-85
2023/05/07 05:53:35;;;;;;;2.97;1.80;;;;;;;;;;5135369;27;20050;-85
2023/05/07 05:56:00;;;;;;;2.05;1.77;;;;;;;;;;5136121;27;20102;-84
2023/05/07 05:58:26;;;;;;;4.30;2.45;;;;;;;;;;5116853;27;20088;-85
2023/05/07 06:00:52;;;;;;;6.25;2.85;;;;;;;;;;5117048;27;20080;-84
2023/05/07 06:03:17;;;;;;;3.90;2.20;;;;;;;;;;5100171;27;20023;-82
2023/05/07 06:05:43;;;;;;;4.22;2.45;;;;;;;;;;5135091;27;20062;-83
2023/05/07 06:08:08;;;;;;;4.07;2.50;;;;;;;;;;5137107;27;20378;-81
2023/05/07 06:10:38;;;;;;;6.57;2.70;;;;;;;;;;5117547;27;20031;-85
2023/05/07 06:13:03;;;;;;;6.90;2.83;;;;;;;;;;5135644;27;20164;-86
2023/05/07 06:15:28;;;;;;;6.65;2.20;;;;;;;;;;5114920;27;20106;-80
2023/05/07 06:17:57;;;;;;;6.32;2.13;;;;;;;;;;5134485;27;20478;-82
2023/05/07 06:20:22;;;;;;;4.72;2.60;;;;;;;;;;5134665;27;20354;-83
2023/05/07 06:22:48;;;;;;;4.18;2.50;;;;;;;;;;5099125;27;20026;-81
2023/05/07 06:25:14;;;;;;;7.78;2.88;;;;;;;;;;5099268;27;20306;-82
2023/05/07 06:27:40;;;;;;;5.80;2.40;;;;;;;;;;5101094;27;20027;-81
2023/05/07 06:30:06;;;;;;;4.85;2.60;;;;;;;;;;5115465;27;20050;-82
2023/05/07 06:32:32;;;;;;;4.68;2.30;;;;;;;;;;5133597;27;20027;-81
2023/05/07 06:34:57;;;;;;;2.60;2.40;;;;;;;;;;5133858;27;20424;-82
2023/05/07 06:37:22;;;;;;;2.30;2.10;;;;;;;;;;5115710;27;20537;-83
2023/05/07 06:39:48;;;;;;;8.02;2.30;;;;;;;;;;5098537;27;20371;-82
2023/05/07 06:42:13;;;;;;;4.38;2.10;;;;;;;;;;5134081;27;20031;-84
2023/05/07 06:44:38;;;;;;;5.13;2.30;;;;;;;;;;5133947;27;20027;-82
2023/05/07 06:47:05;;;;;;;3.83;2.38;;;;;;;;;;5133765;27;20034;-82
2023/05/07 06:49:31;;;;;;;5.25;2.30;;;;;;;;;;5134100;27;20030;-81
2023/05/07 06:51:56;;;;;;;2.83;2.20;;;;;;;;;;5115506;27;20019;-83
2023/05/07 06:54:22;;;;;;;4.32;2.15;;;;;;;;;;5133687;27;20027;-83
2023/05/07 06:56:48;;;;;;;3.88;2.33;;;;;;;;;;5133807;28;20492;-82
2023/05/07 06:59:13;;;;;;;2.50;2.17;;;;;;;;;;5115432;28;20031;-83
2023/05/07 07:01:39;;;;;;;3.97;2.30;;;;;;;;;;5098192;28;20030;-82
2023/05/07 07:04:04;;;;;;;5.93;2.40;;;;;;;;;;5115359;28;20558;-83
2023/05/07 07:06:31;;;;;;;2.90;1.90;;;;;;;;;;5115112;28;20047;-83
2023/05/07 07:08:57;;;;;;;3.03;2.38;;;;;;;;;;5115279;28;20122;-83
2023/05/07 07:11:23;;;;;;;2.75;2.42;;;;;;;;;;5098136;28;20031;-83
2023/05/07 07:13:48;;;;;;;5.45;2.20;;;;;;;;;;5133449;28;20033;-82
2023/05/07 07:16:13;;;;;;;3.80;2.10;;;;;;;;;;5133284;28;20509;-82
2023/05/07 07:18:39;;;;;;;5.10;2.17;;;;;;;;;;5133500;28;20031;-83
2023/05/07 07:21:05;;;;;;;3.90;2.30;;;;;;;;;;5115200;28;20031;-84
2023/05/07 07:23:30;;;;;;;5.05;2.13;;;;;;;;;;5115143;28;20378;-85
2023/05/07 07:25:56;;;;;;;3.72;2.30;;;;;;;;;;5098117;28;20374;-83
2023/05/07 07:28:21;;;;;;;2.97;1.95;;;;;;;;;;5133506;28;20027;-82
2023/05/07 07:30:46;;;;;;;7.32;2.55;;;;;;;;;;5097986;28;20439;-82
2023/05/07 07:33:12;;;;;;;2.17;2.00;;;;;;;;;;5115084;28;20027;-82
2023/05/07 07:35:37;;;;;;;4.05;2.35;;;;;;;;;;5098176;28;20027;-81
2023/05/07 07:38:03;;;;;;;3.40;2.15;;;;;;;;;;5115074;28;20106;-80
2023/05/07 07:40:28;;;;;;;2.88;2.58;;;;;;;;;;5133377;28;20046;-82
2023/05/07 07:42:54;;;;;;;3.45;2.53;;;;;;;;;;5133625;28;20405;-80
2023/05/07 07:45:19;;;;;;;3.47;2.45;;;;;;;;;;5135288;27;20073;-82
2023/05/07 07:47:45;;;;;;;3.03;2.45;;;;;;;;;;5137035;27;20095;-82
2023/05/07 07:50:11;;;;;;;4.00;2.58;;;;;;;;;;5137010;27;20027;-82
2023/05/07 07:52:36;;;;;;;6.05;2.88;;;;;;;;;;5118879;27;20023;-84
2023/05/07 07:55:02;;;;;;;4.15;3.00;;;;;;;;;;5118661;27;20412;-81
2023/05/07 07:57:27;;;;;;;5.93;2.80;;;;;;;;;;5101466;27;20027;-78
2023/05/07 07:59:52;;;;;;;8.57;3.15;;;;;;;;;;5118428;27;20023;-81
2023/05/07 08:02:18;;;;;;;14.23;4.03;;;;;;;;;;5118641;27;20050;-85
2023/05/07 08:04:43;;;;;;;16.15;4.88;;;;;;;;;;5084826;27;20058;-87
2023/05/07 08:07:09;;;;;;;12.75;4.88;;;;;;;;;;5137647;27;20051;-86
2023/05/07 08:09:35;;;;;;;18.75;5.65;;;;;;;;;;5137715;27;20473;-86
2023/05/07 08:12:01;;;;;;;12.60;5.75;;;;;;;;;;5119111;27;20041;-86
2023/05/07 08:14:28;;;;;;;15.13;4.97;;;;;;;;;;5137225;27;20034;-86
2023/05/07 08:16:54;;;;;;;11.23;4.93;;;;;;;;;;5118812;27;20111;-84
2023/05/07 08:19:20;;;;;;;10.93;4.85;;;;;;;;;;5118951;27;20025;-85
2023/05/07 08:21:47;;;;;;;8.40;4.75;;;;;;;;;;5119062;27;20027;-86
2023/05/07 08:24:13;;;;;;;15.63;5.07;;;;;;;;;;5118723;27;20047;-87
2023/05/07 08:26:39;;;;;;;9.90;5.15;;;;;;;;;;5118951;27;20436;-89
2023/05/07 08:29:04;;;;;;;10.75;4.72;;;;;;;;;;5119684;27;20031;-86
2023/05/07 08:31:30;;;;;;;7.03;4.38;;;;;;;;;;5119577;27;20509;-89
2023/05/07 08:33:56;;;;;;;12.95;3.95;;;;;;;;;;5137685;27;20023;-88
2023/05/07 08:36:22;;;;;;;7.55;4.53;;;;;;;;;;5119119;27;20583;-87
2023/05/07 08:38:47;;;;;;;8.15;4.00;;;;;;;;;;5101446;27;20031;-87
2023/05/07 08:41:12;;;;;;;7.18;3.72;;;;;;;;;;5137037;27;20023;-84
2023/05/07 08:43:40;;;;;;;9.32;4.18;;;;;;;;;;5137135;27;20024;-85
2023/05/07 08:46:08;;;;;;;8.85;4.25;;;;;;;;;;5101269;27;20023;-85
2023/05/07 08:48:34;;;;;;;7.82;4.03;;;;;;;;;;5101353;27;20164;-85
2023/05/07 08:50:59;;;;;;;5.25;3.58;;;;;;;;;;5101394;27;20057;-85
2023/05/07 08:53:25;;;;;;;5.72;3.38;;;;;;;;;;5118413;27;20030;-86
2023/05/07 08:55:51;;;;;;;6.72;3.78;;;;;;;;;;5100574;27;20083;-85
2023/05/07 08:58:16;;;;;;;6.07;3.75;;;;;;;;;;5101657;27;20031;-84
2023/05/07 09:00:42;;;;;;;5.60;4.00;;;;;;;;;;5137036;27;20027;-89
2023/05/07 09:03:07;;;;;;;9.45;4.63;;;;;;;;;;5101427;27;20016;-87
2023/05/07 09:05:33;;;;;;;8.00;4.32;;;;;;;;;;5084583;27;20057;-88
2023/05/07 09:08:02;;;;;;;6.70;3.90;;;;;;;;;;5119721;27;20047;-88
2023/05/07 09:10:29;;;;;;;6.30;3.38;;;;;;;;;;5102959;27;20468;-88
2023/05/07 09:12:55;;;;;;;6.72;3.83;;;;;;;;;;5119105;27;20045;-88
2023/05/07 09:15:20;;;;;;;5.13;3.58;;;;;;;;;;5119232;27;20114;-87
2023/05/07 09:17:46;;;;;;;3.88;3.35;;;;;;;;;;5101134;27;20030;-86
2023/05/07 09:20:11;;;;;;;6.32;3.50;;;;;;;;;;5136480;27;20027;-85
2023/05/07 09:22:37;;;;;;;6.47;3.58;;;;;;;;;;5136488;27;20030;-84
2023/05/07 09:25:03;;;;;;;7.80;3.55;;;;;;;;;;5117756;27;20054;-84
2023/05/07 09:27:30;;;;;;;6.38;3.83;;;;;;;;;;5117941;27;20031;-85
2023/05/07 09:29:55;;;;;;;4.80;3.60;;;;;;;;;;5117981;27;20031;-85
2023/05/07 09:32:21;;;;;;;6.68;3.35;;;;;;;;;;5117567;27;20035;-84
2023/05/07 09:34:47;;;;;;;6.60;3.47;;;;;;;;;;5118355;27;20037;-92
2023/05/07 09:37:13;;;;;;;5.05;3.88;;;;;;;;;;5137449;27;20031;-91
2023/05/07 09:39:42;;;;;;;5.97;3.60;;;;;;;;;;5118344;27;20424;-89
2023/05/07 09:42:08;;;;;;;4.78;3.65;;;;;;;;;;5100283;27;20031;-87
2023/05/07 09:44:34;;;;;;;5.65;3.80;;;;;;;;;;5100121;27;20450;-86
2023/05/07 09:47:00;;;;;;;8.65;3.85;;;;;;;;;;5117422;27;20085;-87
2023/05/07 09:49:29;;;;;;;8.77;3.53;;;;;;;;;;5099377;27;20166;-89
2023/05/07 09:51:56;;;;;;;5.85;3.85;;;;;;;;;;5116754;27;20101;-86
2023/05/07 09:54:21;;;;;;;5.07;3.83;;;;;;;;;;5117132;27;20067;-84
2023/05/07 09:56:48;;;;;;;6.65;3.60;;;;;;;;;;5136204;27;20110;-84
2023/05/07 09:59:15;;;;;;;4.78;3.85;;;;;;;;;;5099317;27;20142;-83
2023/05/07 10:01:42;;;;;;;5.13;3.50;;;;;;;;;;5116378;27;20023;-86
2023/05/07 10:04:08;;;;;;;4.90;3.60;;;;;;;;;;5116184;27;20026;-85
2023/05/07 10:06:35;;;;;;;4.40;3.78;;;;;;;;;;5115629;28;20051;-82
2023/05/07 10:09:02;;;;;;;5.40;3.83;;;;;;;;;;5099128;27;20401;-83
2023/05/07 10:11:28;;;;;;;5.97;3.65;;;;;;;;;;5116315;27;20031;-85
2023/05/07 10:13:53;;;;;;;5.80;3.90;;;;;;;;;;5117048;27;20027;-81
2023/05/07 10:16:20;;;;;;;11.30;5.43;;;;;;;;;;5134131;27;20032;-82
2023/05/07 10:18:46;;;;;;;29.20;9.35;;;;;;;;;;5135180;27;20027;-87
2023/05/07 10:21:17;;;;;;;23.25;8.38;;;;;;;;;;5132969;27;20035;-85
2023/05/07 10:23:45;;;;;;;23.90;9.00;;;;;;;;;;5116012;27;20082;-84
2023/05/07 10:26:11;;;;;;;19.92;8.52;;;;;;;;;;5111438;27;20019;-85
2023/05/07 10:28:42;;;;;;;22.52;8.48;;;;;;;;;;5124236;28;20048;-81
2023/05/07 10:31:11;;;;;;;24.95;8.32;;;;;;;;;;5120619;27;20030;-83
2023/05/07 10:33:37;;;;;;;14.27;7.68;;;;;;;;;;5138982;27;20068;-82
2023/05/07 10:36:04;;;;;;;16.10;7.18;;;;;;;;;;5102323;27;20508;-81
2023/05/07 10:38:30;;;;;;;18.58;7.30;;;;;;;;;;5105440;27;20375;-81
2023/05/07 10:40:55;;;;;;;15.10;7.15;;;;;;;;;;5118247;27;20030;-83
2023/05/07 10:43:21;;;;;;;12.07;6.03;;;;;;;;;;5117624;27;20015;-82
2023/05/07 10:46:14;;;;;;;14.88;5.72;;;;;;;;;;5116861;27;20055;-82
2023/05/07 10:49:02;;;;;;;10.70;5.57;;;;;;;;;;5099086;27;20118;-83
2023/05/07 10:51:29;;;;;;;11.48;6.05;;;;;;;;;;5116018;28;20019;-83
2023/05/07 10:54:18;;;;;;;11.02;5.57;;;;;;;;;;5099650;28;20034;-82
2023/05/07 10:56:44;;;;;;;6.90;4.72;;;;;;;;;;5102802;28;20031;-84
2023/05/07 10:59:26;;;;;;;7.03;5.13;;;;;;;;;;5116340;28;20545;-81
2023/05/07 11:01:57;;;;;;;6.95;4.18;;;;;;;;;;5117561;28;20081;-84
2023/05/07 11:04:27;;;;;;;7.97;4.63;;;;;;;;;;5117154;28;20068;-86
2023/05/07 11:07:12;;;;;;;7.07;4.43;;;;;;;;;;5124539;27;20167;-87
2023/05/07 11:10:04;;;;;;;8.68;4.80;;;;;;;;;;5138128;27;20074;-85
2023/05/07 11:12:36;;;;;;;4.18;3.78;;;;;;;;;;5117800;27;20046;-85
2023/05/07 11:15:06;;;;;;;5.97;4.05;;;;;;;;;;5155654;27;20046;-84
2023/05/07 11:17:34;;;;;;;10.50;4.70;;;;;;;;;;5135961;27;20019;-83
2023/05/07 11:20:04;;;;;;;7.90;4.28;;;;;;;;;;5139651;27;20027;-85
2023/05/07 11:22:36;;;;;;;9.43;4.22;;;;;;;;;;5141282;27;20384;-83
2023/05/07 11:25:06;;;;;;;9.52;4.57;;;;;;;;;;5159331;27;20023;-84
2023/05/07 11:27:32;;;;;;;7.93;4.18;;;;;;;;;;5123293;27;20022;-84
2023/05/07 11:29:57;;;;;;;9.55;4.13;;;;;;;;;;5123021;27;20029;-85
2023/05/07 11:32:27;;;;;;;6.63;4.00;;;;;;;;;;5123699;27;20022;-85
2023/05/07 11:34:54;;;;;;;9.75;4.20;;;;;;;;;;5124145;27;20031;-84
2023/05/07 11:37:20;;;;;;;6.78;3.78;;;;;;;;;;5174909;27;20050;-84
2023/05/07 11:39:46;;;;;;;9.35;3.72;;;;;;;;;;5161282;27;20073;-82
2023/05/07 11:42:34;;;;;;;10.02;4.07;;;;;;;;;;5159053;27;20027;-82
2023/05/07 11:45:00;;;;;;;9.45;4.13;;;;;;;;;;5146347;27;20144;-81
2023/05/07 11:47:26;;;;;;;7.47;4.05;;;;;;;;;;5146937;27;20159;-83
2023/05/07 11:49:53;;;;;;;10.10;4.32;;;;;;;;;;5128886;27;20046;-81
2023/05/07 11:52:20;;;;;;;5.45;3.85;;;;;;;;;;5145355;27;20014;-80
2023/05/07 11:54:49;;;;;;;12.00;4.68;;;;;;;;;;5159866;27;20388;-80
2023/05/07 11:57:15;;;;;;;11.15;5.03;;;;;;;;;;5122481;27;20034;-79
2023/05/07 11:59:41;;;;;;;11.90;5.00;;;;;;;;;;5140231;27;20042;-79
2023/05/07 12:02:07;;;;;;;15.45;5.07;;;;;;;;;;5139370;27;20026;-79
2023/05/07 12:04:32;;;;;;;13.85;4.85;;;;;;;;;;5139139;27;20045;-79
2023/05/07 12:06:58;;;;;;;10.90;4.30;;;;;;;;;;5122138;27;20082;-78
2023/05/07 12:09:23;;;;;;;10.57;4.45;;;;;;;;;;5139262;27;20374;-79
2023/05/07 12:11:49;;;;;;;7.47;3.97;;;;;;;;;;5138963;27;20034;-79
2023/05/07 12:14:17;;;;;;;6.55;4.10;;;;;;;;;;5138847;27;20026;-79
2023/05/07 12:16:43;;;;;;;7.05;3.53;;;;;;;;;;5157600;27;20051;-78
2023/05/07 12:19:12;;;;;;;8.00;3.72;;;;;;;;;;5138605;27;20023;-78
2023/05/07 12:21:38;;;;;;;9.25;4.03;;;;;;;;;;5122553;27;20049;-79
2023/05/07 12:24:04;;;;;;;5.78;3.75;;;;;;;;;;5121971;27;20453;-79
2023/05/07 12:26:29;;;;;;;7.80;3.85;;;;;;;;;;5139274;27;20038;-79
2023/05/07 12:28:55;;;;;;;6.85;3.67;;;;;;;;;;5122153;27;20034;-79
2023/05/07 12:31:20;;;;;;;6.75;3.47;;;;;;;;;;5121192;27;20034;-79
2023/05/07 12:33:46;;;;;;;6.28;3.45;;;;;;;;;;5139399;27;20035;-78
2023/05/07 12:36:12;;;;;;;8.32;3.67;;;;;;;;;;5121864;27;20027;-78
2023/05/07 12:38:39;;;;;;;5.07;3.60;;;;;;;;;;5138958;27;20037;-78
2023/05/07 12:41:06;;;;;;;8.40;3.85;;;;;;;;;;5121846;27;20500;-80
2023/05/07 12:43:32;;;;;;;5.63;3.60;;;;;;;;;;5157910;27;20110;-78
2023/05/07 12:46:01;;;;;;;13.75;3.88;;;;;;;;;;5121590;27;20548;-79
2023/05/07 12:48:29;;;;;;;5.28;3.80;;;;;;;;;;5139016;27;20392;-79
2023/05/07 12:50:56;;;;;;;19.60;4.30;;;;;;;;;;5157616;27;20523;-78
2023/05/07 12:53:23;;;;;;;8.23;3.45;;;;;;;;;;5139044;27;20022;-78
2023/05/07 12:55:51;;;;;;;8.73;3.78;;;;;;;;;;5157191;27;20018;-78
2023/05/07 12:58:28;;;;;;;5.82;3.83;;;;;;;;;;5138776;27;20023;-78
2023/05/07 13:00:58;;;;;;;5.90;3.55;;;;;;;;;;5121581;27;20037;-79
2023/05/07 13:03:31;;;;;;;9.23;4.10;;;;;;;;;;5121827;27;20018;-78
2023/05/07 13:06:09;;;;;;;5.75;3.53;;;;;;;;;;5138676;27;20047;-79
2023/05/07 13:08:40;;;;;;;5.30;3.42;;;;;;;;;;5138929;27;20334;-78
2023/05/07 13:11:08;;;;;;;4.65;3.40;;;;;;;;;;5157000;27;20019;-78
2023/05/07 13:13:40;;;;;;;4.68;3.28;;;;;;;;;;5121102;27;20027;-78
2023/05/07 13:16:07;;;;;;;3.58;3.20;;;;;;;;;;5121861;27;20469;-78
2023/05/07 13:18:33;;;;;;;6.68;3.83;;;;;;;;;;5121686;27;20033;-79
2023/05/07 13:21:00;;;;;;;6.03;3.53;;;;;;;;;;5157366;27;20377;-78
2023/05/07 13:23:25;;;;;;;4.55;3.20;;;;;;;;;;5120993;27;20026;-77
2023/05/07 13:25:53;;;;;;;4.90;3.22;;;;;;;;;;5156735;27;20030;-78
2023/05/07 13:28:20;;;;;;;4.25;3.45;;;;;;;;;;5121235;27;20039;-79
2023/05/07 13:30:46;;;;;;;3.72;2.83;;;;;;;;;;5156897;27;20072;-78
2023/05/07 13:33:11;;;;;;;4.00;3.22;;;;;;;;;;5138070;27;20473;-78
2023/05/07 13:35:37;;;;;;;9.40;3.78;;;;;;;;;;5138671;27;20037;-78
2023/05/07 13:38:03;;;;;;;4.45;3.38;;;;;;;;;;5120839;27;20492;-78
2023/05/07 13:40:28;;;;;;;5.10;3.63;;;;;;;;;;5137990;27;20038;-79
2023/05/07 13:42:54;;;;;;;4.38;3.55;;;;;;;;;;5138074;27;20031;-78
2023/05/07 13:45:19;;;;;;;5.30;3.90;;;;;;;;;;5120579;27;20419;-79
2023/05/07 13:47:46;;;;;;;4.18;3.60;;;;;;;;;;5138419;27;20031;-80
2023/05/07 13:50:13;;;;;;;5.15;3.58;;;;;;;;;;5137770;27;20071;-79
2023/05/07 13:52:41;;;;;;;4.35;3.38;;;;;;;;;;5103900;27;20023;-78
2023/05/07 13:55:07;;;;;;;4.55;3.35;;;;;;;;;;5120362;27;20026;-79
2023/05/07 13:57:32;;;;;;;4.70;3.60;;;;;;;;;;5120426;27;20027;-78
2023/05/07 13:59:57;;;;;;;4.07;3.20;;;;;;;;;;5137848;27;20109;-78
2023/05/07 14:02:23;;;;;;;6.50;3.35;;;;;;;;;;5137517;27;20078;-80
2023/05/07 14:04:48;;;;;;;4.68;3.40;;;;;;;;;;5103292;27;20023;-79
2023/05/07 14:07:13;;;;;;;7.07;3.53;;;;;;;;;;5133942;27;20048;-79
2023/05/07 14:09:39;;;;;;;5.15;4.10;;;;;;;;;;5133754;27;20031;-77
2023/05/07 14:12:05;;;;;;;6.70;4.30;;;;;;;;;;5133790;27;20035;-78
2023/05/07 14:14:31;;;;;;;4.88;4.20;;;;;;;;;;5116607;27;20393;-78
2023/05/07 14:16:57;;;;;;;5.35;4.50;;;;;;;;;;5133640;27;20100;-79
2023/05/07 14:19:22;;;;;;;5.38;4.22;;;;;;;;;;5133616;27;20031;-79
2023/05/07 14:21:48;;;;;;;6.05;3.95;;;;;;;;;;5134246;27;20027;-77
2023/05/07 14:24:13;;;;;;;7.03;3.83;;;;;;;;;;5135786;27;20034;-78
2023/05/07 14:26:39;;;;;;;4.47;3.78;;;;;;;;;;5133681;27;20023;-78
2023/05/07 14:29:04;;;;;;;5.80;4.07;;;;;;;;;;5133477;27;20501;-78
2023/05/07 14:31:30;;;;;;;8.77;3.78;;;;;;;;;;5133531;27;20114;-78
2023/05/07 14:33:57;;;;;;;11.35;4.00;;;;;;;;;;5134993;27;20027;-78
2023/05/07 14:36:25;;;;;;;5.00;3.72;;;;;;;;;;5100012;27;20452;-78